Time;durP1;ratioP1;P1;durP2;ratioP2;P2;SDS_P1;SDS_P2;PMS_P1;PMS_P2;Temp;Humidity;BMP_temperature;BMP_pressure;BME280_temperature;BME280_humidity;BME280_pressure;Samples;Min_cycle;Max_cycle;Signal;HPM_P1;HPM_P2
2023/10/20 00:01:00;;;;;;;9.55;6.97;;;7.60;99.90;;;;;;5133817;27;20058;-71
2023/10/20 00:03:26;;;;;;;11.00;6.45;;;7.60;99.90;;;;;;5133467;27;20043;-72
2023/10/20 00:05:52;;;;;;;8.15;6.53;;;7.60;99.90;;;;;;5134049;27;20146;-72
2023/10/20 00:08:18;;;;;;;8.82;6.60;;;7.60;99.90;;;;;;5133154;27;20050;-72
2023/10/20 00:10:43;;;;;;;12.52;8.30;;;7.60;99.90;;;;;;5132537;27;20548;-73
2023/10/20 00:13:09;;;;;;;9.82;7.47;;;7.60;99.90;;;;;;5132995;27;20047;-73
2023/10/20 00:15:35;;;;;;;12.60;7.72;;;7.60;99.90;;;;;;5132744;27;20480;-73
2023/10/20 00:18:02;;;;;;;9.82;7.20;;;7.60;99.90;;;;;;5134717;27;20039;-71
2023/10/20 00:20:28;;;;;;;11.27;7.45;;;7.60;99.90;;;;;;5132894;27;20055;-72
2023/10/20 00:22:55;;;;;;;11.00;7.82;;;7.60;99.90;;;;;;5134583;27;20039;-72
2023/10/20 00:25:21;;;;;;;10.45;7.38;;;7.60;99.90;;;;;;5134360;27;20043;-72
2023/10/20 00:27:47;;;;;;;11.82;7.60;;;7.60;99.90;;;;;;5134158;27;20035;-72
2023/10/20 00:30:14;;;;;;;11.27;7.65;;;7.60;99.90;;;;;;5132889;27;20050;-71
2023/10/20 00:32:40;;;;;;;10.35;7.32;;;7.60;99.90;;;;;;5132599;27;20488;-72
2023/10/20 00:35:13;;;;;;;9.55;6.50;;;7.60;99.90;;;;;;5134809;27;20140;-72
2023/10/20 00:37:39;;;;;;;8.20;5.07;;;7.60;99.90;;;;;;5132423;27;20050;-75
2023/10/20 00:40:09;;;;;;;8.93;5.50;;;7.60;99.90;;;;;;5134212;27;20389;-72
2023/10/20 00:42:37;;;;;;;12.27;7.05;;;7.70;99.90;;;;;;5132114;27;20058;-72
2023/10/20 00:45:04;;;;;;;10.32;7.68;;;7.60;99.90;;;;;;5133136;27;20085;-72
2023/10/20 00:47:30;;;;;;;10.38;7.65;;;7.60;99.90;;;;;;5123416;27;20104;-72
2023/10/20 00:49:58;;;;;;;10.73;6.55;;;7.60;99.90;;;;;;5128561;27;20039;-72
2023/10/20 00:52:25;;;;;;;10.73;7.30;;;7.60;99.90;;;;;;5115881;27;20164;-72
2023/10/20 00:54:51;;;;;;;10.82;7.70;;;7.60;99.90;;;;;;5133401;27;20108;-72
2023/10/20 00:57:18;;;;;;;10.85;7.22;;;7.60;99.90;;;;;;5134154;27;20113;-72
2023/10/20 00:59:44;;;;;;;11.68;7.28;;;7.60;99.90;;;;;;5133343;27;20043;-72
2023/10/20 01:02:10;;;;;;;9.68;6.72;;;7.60;99.90;;;;;;5132194;27;20456;-72
2023/10/20 01:04:36;;;;;;;10.68;7.95;;;7.60;99.90;;;;;;5132058;27;20075;-72
2023/10/20 01:07:02;;;;;;;12.07;7.68;;;7.60;99.90;;;;;;5133556;27;20078;-71
2023/10/20 01:09:28;;;;;;;11.65;7.45;;;7.60;99.90;;;;;;5124968;27;20130;-71
2023/10/20 01:11:54;;;;;;;12.70;7.85;;;7.60;99.90;;;;;;5114740;27;20090;-71
2023/10/20 01:14:20;;;;;;;11.63;7.57;;;7.60;99.90;;;;;;5108719;28;20075;-71
2023/10/20 01:16:47;;;;;;;11.77;7.88;;;7.60;99.90;;;;;;5111530;28;20083;-71
2023/10/20 01:19:14;;;;;;;13.82;8.73;;;7.60;99.90;;;;;;5123018;27;20049;-71
2023/10/20 01:21:40;;;;;;;17.25;10.90;;;7.60;99.90;;;;;;5125238;27;20050;-72
2023/10/20 01:24:06;;;;;;;12.85;8.40;;;7.60;99.90;;;;;;5122751;27;20071;-74
2023/10/20 01:26:32;;;;;;;15.65;10.07;;;7.60;99.90;;;;;;5129627;27;20115;-72
2023/10/20 01:28:59;;;;;;;13.18;9.13;;;7.70;99.90;;;;;;5127525;27;20391;-72
2023/10/20 01:31:25;;;;;;;14.18;9.10;;;7.60;99.90;;;;;;5106919;27;20062;-71
2023/10/20 01:33:51;;;;;;;14.95;9.70;;;7.60;99.90;;;;;;5126907;27;20400;-71
2023/10/20 01:36:17;;;;;;;12.85;8.82;;;7.60;99.90;;;;;;5133054;27;20046;-71
2023/10/20 01:38:42;;;;;;;14.68;9.52;;;7.60;99.90;;;;;;5116929;27;20043;-71
2023/10/20 01:41:08;;;;;;;16.88;11.18;;;7.60;99.90;;;;;;5122335;27;20479;-71
2023/10/20 01:43:34;;;;;;;16.63;11.18;;;7.60;99.90;;;;;;5132857;27;20043;-72
2023/10/20 01:46:03;;;;;;;23.10;12.27;;;7.60;99.90;;;;;;5131977;27;20054;-71
2023/10/20 01:48:33;;;;;;;13.02;8.65;;;7.60;99.90;;;;;;5117330;27;20046;-71
2023/10/20 01:51:00;;;;;;;18.67;11.57;;;7.60;99.90;;;;;;5114476;27;20134;-71
2023/10/20 01:53:26;;;;;;;17.00;10.45;;;7.60;99.90;;;;;;5131638;27;20125;-71
2023/10/20 01:55:52;;;;;;;15.30;9.90;;;7.60;99.90;;;;;;5129173;27;20118;-72
2023/10/20 01:58:19;;;;;;;15.75;10.75;;;7.60;99.90;;;;;;5132627;27;20076;-71
2023/10/20 02:00:48;;;;;;;17.10;11.13;;;7.60;99.90;;;;;;5132363;27;20039;-72
2023/10/20 02:03:14;;;;;;;19.33;13.45;;;7.60;99.90;;;;;;5129027;27;20039;-72
2023/10/20 02:05:40;;;;;;;20.55;12.18;;;7.70;99.90;;;;;;5132899;27;20038;-72
2023/10/20 02:08:10;;;;;;;16.63;10.45;;;7.70;99.90;;;;;;5125427;27;20454;-71
2023/10/20 02:10:36;;;;;;;15.15;10.18;;;7.60;99.90;;;;;;5123384;27;20048;-71
2023/10/20 02:13:03;;;;;;;20.83;12.90;;;7.60;99.90;;;;;;5126216;28;20047;-72
2023/10/20 02:15:29;;;;;;;16.33;9.77;;;7.60;99.90;;;;;;5095848;28;20079;-72
2023/10/20 02:17:58;;;;;;;14.65;10.32;;;7.70;99.90;;;;;;5132368;28;20043;-72
2023/10/20 02:20:25;;;;;;;21.13;14.00;;;7.60;99.90;;;;;;5126454;28;20047;-72
2023/10/20 02:22:52;;;;;;;23.10;13.63;;;7.60;99.90;;;;;;5124164;28;20122;-72
2023/10/20 02:25:19;;;;;;;22.23;13.40;;;7.60;99.90;;;;;;5127364;28;20035;-71
2023/10/20 02:27:47;;;;;;;21.38;12.48;;;7.60;99.90;;;;;;5120363;28;20042;-72
2023/10/20 02:30:14;;;;;;;21.55;12.88;;;7.60;99.90;;;;;;5132102;27;20051;-72
2023/10/20 02:32:40;;;;;;;24.10;14.63;;;7.60;99.90;;;;;;5132490;27;20093;-71
2023/10/20 02:35:07;;;;;;;25.25;16.30;;;7.60;99.90;;;;;;5131758;27;20043;-71
2023/10/20 02:37:33;;;;;;;22.60;14.43;;;7.60;99.90;;;;;;5107855;28;20047;-72
2023/10/20 02:39:59;;;;;;;23.05;13.88;;;7.60;99.90;;;;;;5131898;27;20528;-72
2023/10/20 02:42:25;;;;;;;26.30;15.98;;;7.60;99.90;;;;;;5099733;28;20153;-71
2023/10/20 02:44:50;;;;;;;22.25;13.20;;;7.60;99.90;;;;;;5123933;28;20042;-72
2023/10/20 02:47:16;;;;;;;23.50;15.98;;;7.60;99.90;;;;;;5124810;28;20059;-71
2023/10/20 02:49:42;;;;;;;24.98;14.57;;;7.60;99.90;;;;;;5111962;28;20043;-72
2023/10/20 02:52:07;;;;;;;24.42;14.93;;;7.50;99.90;;;;;;5126018;27;20091;-71
2023/10/20 02:54:34;;;;;;;28.40;16.73;;;7.60;99.90;;;;;;5132193;27;20118;-71
2023/10/20 02:57:00;;;;;;;21.55;13.23;;;7.60;99.90;;;;;;5125980;27;20465;-71
2023/10/20 02:59:26;;;;;;;21.25;13.82;;;7.50;99.90;;;;;;5118402;27;20077;-71
2023/10/20 03:01:55;;;;;;;25.50;13.93;;;7.50;99.90;;;;;;5127988;27;20389;-72
2023/10/20 03:04:21;;;;;;;27.85;15.13;;;7.50;99.90;;;;;;5131140;27;20070;-72
2023/10/20 03:06:47;;;;;;;25.40;16.88;;;7.50;99.90;;;;;;5132931;27;20048;-71
2023/10/20 03:09:13;;;;;;;22.67;14.15;;;7.50;99.90;;;;;;5116136;27;20359;-71
2023/10/20 03:11:40;;;;;;;26.92;15.70;;;7.50;99.90;;;;;;5115791;27;20554;-70
2023/10/20 03:14:06;;;;;;;25.83;16.92;;;7.50;99.90;;;;;;5111673;28;20335;-70
2023/10/20 03:16:34;;;;;;;24.30;14.07;;;7.40;99.90;;;;;;5109773;27;20130;-72
2023/10/20 03:19:01;;;;;;;26.98;16.42;;;7.40;99.90;;;;;;5125368;27;20082;-72
2023/10/20 03:21:28;;;;;;;26.17;14.40;;;7.50;99.90;;;;;;5108247;28;20047;-71
2023/10/20 03:23:54;;;;;;;24.38;14.23;;;7.50;99.90;;;;;;5118151;27;20408;-72
2023/10/20 03:26:20;;;;;;;18.55;11.05;;;7.40;99.90;;;;;;5133640;27;20050;-71
2023/10/20 03:28:45;;;;;;;26.80;14.88;;;7.40;99.90;;;;;;5105818;28;20043;-72
2023/10/20 03:31:11;;;;;;;21.15;11.88;;;7.40;99.90;;;;;;5133913;27;20103;-72
2023/10/20 03:33:37;;;;;;;19.98;14.20;;;7.40;99.90;;;;;;5136136;27;20400;-72
2023/10/20 03:36:04;;;;;;;18.08;12.38;;;7.40;99.90;;;;;;5134132;27;20111;-73
2023/10/20 03:38:31;;;;;;;23.05;13.75;;;7.40;99.90;;;;;;5134983;27;20043;-72
2023/10/20 03:41:06;;;;;;;19.08;12.15;;;7.40;99.90;;;;;;5135035;27;20079;-73
2023/10/20 03:43:34;;;;;;;18.25;10.60;;;7.40;99.90;;;;;;5124572;27;20073;-71
2023/10/20 03:46:00;;;;;;;18.83;11.95;;;7.40;99.90;;;;;;5133652;27;20396;-73
2023/10/20 03:48:29;;;;;;;23.48;13.38;;;7.40;99.90;;;;;;5135469;27;20043;-72
2023/10/20 03:50:55;;;;;;;19.42;12.40;;;7.40;99.90;;;;;;5135208;27;20047;-72
2023/10/20 03:53:27;;;;;;;17.20;11.68;;;7.40;99.90;;;;;;5134107;27;20392;-72
2023/10/20 03:56:11;;;;;;;18.05;11.07;;;7.40;99.90;;;;;;5134113;27;20531;-72
2023/10/20 03:58:37;;;;;;;17.77;11.75;;;7.40;99.90;;;;;;5133228;27;20039;-72
2023/10/20 04:01:03;;;;;;;17.08;11.18;;;7.40;99.90;;;;;;5100695;27;20039;-72
2023/10/20 04:03:32;;;;;;;16.48;10.55;;;7.50;99.90;;;;;;5135098;27;20058;-71
2023/10/20 04:05:58;;;;;;;20.30;12.93;;;7.40;99.90;;;;;;5121623;27;20503;-72
2023/10/20 04:08:24;;;;;;;19.38;12.57;;;7.40;99.90;;;;;;5109451;28;20103;-72
2023/10/20 04:11:00;;;;;;;16.55;11.43;;;7.40;99.90;;;;;;5127216;27;20107;-72
2023/10/20 04:13:26;;;;;;;16.88;11.77;;;7.40;99.90;;;;;;5125877;27;20043;-72
2023/10/20 04:15:55;;;;;;;16.90;9.77;;;7.40;99.90;;;;;;5113224;28;20148;-72
2023/10/20 04:18:22;;;;;;;18.02;11.13;;;7.40;99.90;;;;;;5108161;28;20116;-72
2023/10/20 04:20:48;;;;;;;13.85;9.43;;;7.40;99.90;;;;;;5113495;28;20157;-72
2023/10/20 04:23:17;;;;;;;16.58;10.63;;;7.40;99.90;;;;;;5130140;27;20043;-72
2023/10/20 04:25:52;;;;;;;17.50;10.20;;;7.40;99.90;;;;;;5115333;27;20040;-72
2023/10/20 04:28:42;;;;;;;14.77;9.77;;;7.50;99.90;;;;;;5112585;28;20044;-72
2023/10/20 04:45:03;;;;;;;13.70;8.98;;;7.50;99.90;;;;;;5131946;27;20118;-72
2023/10/20 04:52:55;;;;;;;10.10;7.35;;;7.50;99.90;;;;;;5134268;27;20503;-72
2023/10/20 04:58:00;;;;;;;7.97;5.78;;;7.50;99.90;;;;;;5133842;27;20059;-72
2023/10/20 05:03:12;;;;;;;8.95;6.18;;;7.50;99.90;;;;;;5129241;27;20051;-72
2023/10/20 05:05:44;;;;;;;9.63;5.95;;;7.60;99.90;;;;;;5121088;27;20055;-73
2023/10/20 05:10:36;;;;;;;12.63;7.45;;;7.60;99.90;;;;;;5112339;28;20080;-73
2023/10/20 05:13:02;;;;;;;9.02;6.63;;;7.50;99.90;;;;;;5128032;27;20119;-73
2023/10/20 05:15:31;;;;;;;9.93;6.63;;;7.50;99.90;;;;;;5106321;28;20051;-73
2023/10/20 05:17:57;;;;;;;10.45;6.93;;;7.50;99.90;;;;;;5128187;27;20043;-73
2023/10/20 05:20:24;;;;;;;11.23;5.70;;;7.50;99.90;;;;;;5109714;27;20052;-73
2023/10/20 05:22:50;;;;;;;7.93;5.55;;;7.60;99.90;;;;;;5123359;27;20043;-73
2023/10/20 05:25:16;;;;;;;9.10;6.32;;;7.60;99.90;;;;;;5116022;27;20054;-73
2023/10/20 05:27:45;;;;;;;8.30;5.25;;;7.60;99.90;;;;;;5133177;27;20069;-72
2023/10/20 05:30:11;;;;;;;8.13;4.65;;;7.60;99.90;;;;;;5114146;27;20031;-73
2023/10/20 05:32:39;;;;;;;8.95;6.00;;;7.60;99.90;;;;;;5124663;27;20089;-71
2023/10/20 05:35:08;;;;;;;9.15;5.30;;;7.60;99.90;;;;;;5131275;27;20051;-73
2023/10/20 05:37:34;;;;;;;8.82;5.57;;;7.60;99.90;;;;;;5109567;27;20047;-73
2023/10/20 05:40:00;;;;;;;8.25;5.57;;;7.60;99.90;;;;;;5132175;27;20051;-74
2023/10/20 05:42:26;;;;;;;7.75;6.00;;;7.60;99.90;;;;;;5132328;27;20046;-73
2023/10/20 05:45:10;;;;;;;7.63;4.18;;;7.60;99.90;;;;;;5129462;27;20054;-72
2023/10/20 05:47:37;;;;;;;8.23;5.13;;;7.60;99.90;;;;;;5118984;27;20100;-72
2023/10/20 05:50:04;;;;;;;7.45;5.40;;;7.60;99.90;;;;;;5116696;27;20059;-71
2023/10/20 05:52:30;;;;;;;6.45;4.07;;;7.70;99.90;;;;;;5131887;27;20114;-72
2023/10/20 05:54:57;;;;;;;6.20;4.75;;;7.70;99.90;;;;;;5128935;27;20126;-72
2023/10/20 05:57:25;;;;;;;7.40;5.00;;;7.60;99.90;;;;;;5125841;27;20096;-72
2023/10/20 05:59:50;;;;;;;6.07;4.20;;;7.60;99.90;;;;;;5130488;27;20043;-72
2023/10/20 06:02:16;;;;;;;6.78;3.85;;;7.60;99.90;;;;;;5132789;27;20433;-73
2023/10/20 06:04:42;;;;;;;6.40;4.30;;;7.70;99.90;;;;;;5093660;28;20040;-73
2023/10/20 06:07:08;;;;;;;6.38;3.33;;;7.70;99.90;;;;;;5123627;27;20074;-72
2023/10/20 06:09:33;;;;;;;6.35;3.88;;;7.60;99.90;;;;;;5129615;27;20130;-72
2023/10/20 06:12:00;;;;;;;5.32;3.45;;;7.70;99.90;;;;;;5125495;28;20075;-73
2023/10/20 06:14:26;;;;;;;5.13;3.17;;;7.60;99.90;;;;;;5126095;28;20412;-73
2023/10/20 06:16:52;;;;;;;5.53;3.10;;;7.60;99.90;;;;;;5132740;28;20400;-74
2023/10/20 06:19:18;;;;;;;5.55;2.72;;;7.60;99.90;;;;;;5104418;28;20047;-76
2023/10/20 06:21:45;;;;;;;4.40;3.28;;;7.60;99.90;;;;;;5128586;28;20485;-77
2023/10/20 06:24:14;;;;;;;7.45;3.17;;;7.70;99.90;;;;;;5114271;27;20484;-77
2023/10/20 06:26:40;;;;;;;5.10;3.15;;;7.60;99.90;;;;;;5136128;27;20108;-76
2023/10/20 06:32:20;;;;;;;5.45;3.10;;;7.60;99.90;;;;;;5120626;27;20051;-75
2023/10/20 06:34:35;;;;;;;5.20;3.20;;;7.60;99.90;;;;;;5134450;27;20100;-76
2023/10/20 06:37:46;;;;;;;4.65;2.80;;;7.50;99.90;;;;;;5118318;27;20126;-75
2023/10/20 06:39:49;;;;;;;4.55;2.83;;;7.60;99.90;;;;;;5120299;27;20117;-76
2023/10/20 06:42:15;;;;;;;5.75;3.17;;;7.60;99.90;;;;;;5098126;28;20489;-76
2023/10/20 06:44:40;;;;;;;5.43;3.50;;;7.60;99.90;;;;;;5113611;27;20096;-77
2023/10/20 06:47:06;;;;;;;5.55;3.65;;;7.50;99.90;;;;;;5127357;27;20071;-75
2023/10/20 06:49:32;;;;;;;5.05;3.38;;;7.50;99.90;;;;;;5124443;27;20404;-75
2023/10/20 06:52:03;;;;;;;6.05;3.67;;;7.50;99.90;;;;;;5086130;27;20130;-75
2023/10/20 06:54:29;;;;;;;4.35;3.10;;;7.40;99.90;;;;;;5110561;27;20058;-77
2023/10/20 06:56:55;;;;;;;7.18;3.60;;;7.50;99.90;;;;;;5133334;27;20116;-73
2023/10/20 06:59:20;;;;;;;6.32;3.70;;;7.50;99.90;;;;;;5118145;27;20484;-74
2023/10/20 07:01:46;;;;;;;5.13;2.80;;;7.40;99.90;;;;;;5133581;27;20050;-74
2023/10/20 07:04:13;;;;;;;4.93;3.15;;;7.40;99.90;;;;;;5136165;27;20046;-75
2023/10/20 07:06:41;;;;;;;4.15;2.53;;;7.40;99.90;;;;;;5126940;27;20051;-75
2023/10/20 07:09:12;;;;;;;5.00;3.50;;;7.40;99.90;;;;;;5135940;27;20078;-75
2023/10/20 07:11:38;;;;;;;3.60;2.75;;;7.40;99.90;;;;;;5115130;27;20139;-77
2023/10/20 07:14:07;;;;;;;6.13;3.45;;;7.40;99.90;;;;;;5105945;28;20047;-75
2023/10/20 07:16:33;;;;;;;7.18;3.97;;;7.40;99.90;;;;;;5102403;27;20031;-77
2023/10/20 07:19:00;;;;;;;4.53;2.95;;;7.40;99.90;;;;;;5116972;27;20408;-77
2023/10/20 07:21:26;;;;;;;5.22;2.80;;;7.40;99.90;;;;;;5133077;27;20058;-75
2023/10/20 07:23:52;;;;;;;5.07;3.50;;;7.40;99.90;;;;;;5112021;27;20058;-76
2023/10/20 07:26:18;;;;;;;4.63;2.95;;;7.30;99.90;;;;;;5066945;28;51751;-76
2023/10/20 07:28:45;;;;;;;5.50;3.50;;;7.30;99.90;;;;;;5071077;28;20051;-77
2023/10/20 07:31:15;;;;;;;5.13;3.28;;;7.40;99.90;;;;;;5065730;28;20044;-78
2023/10/20 07:33:41;;;;;;;3.97;2.50;;;7.30;99.90;;;;;;5067385;28;20040;-76
2023/10/20 07:36:07;;;;;;;3.92;2.70;;;7.30;99.90;;;;;;5065345;28;20128;-76
2023/10/20 07:38:33;;;;;;;5.75;3.25;;;7.30;99.90;;;;;;5072407;28;20131;-77
2023/10/20 07:41:06;;;;;;;6.45;2.85;;;7.30;99.90;;;;;;5056290;28;20576;-77
2023/10/20 07:43:35;;;;;;;6.38;3.38;;;7.30;99.90;;;;;;5066753;28;20048;-77
2023/10/20 07:46:02;;;;;;;5.00;3.00;;;7.30;99.90;;;;;;5070042;28;20039;-77
2023/10/20 07:48:31;;;;;;;5.50;3.60;;;7.30;99.90;;;;;;5070605;28;20470;-78
2023/10/20 07:50:59;;;;;;;5.10;3.60;;;7.20;99.90;;;;;;5071091;28;20055;-78
2023/10/20 07:53:26;;;;;;;3.78;2.80;;;7.20;99.90;;;;;;5051683;28;20048;-79
2023/10/20 07:55:51;;;;;;;5.45;3.20;;;7.20;99.90;;;;;;5070402;28;20040;-79
2023/10/20 07:58:17;;;;;;;4.70;2.90;;;7.20;99.90;;;;;;5038032;28;20040;-77
2023/10/20 08:00:43;;;;;;;5.13;3.35;;;7.20;99.90;;;;;;5071459;28;20057;-77
2023/10/20 08:03:11;;;;;;;6.00;3.70;;;7.10;99.90;;;;;;5054538;28;20093;-77
2023/10/20 08:05:37;;;;;;;6.65;3.67;;;7.10;99.90;;;;;;5049920;28;20055;-77
2023/10/20 08:08:04;;;;;;;6.20;3.75;;;7.10;99.90;;;;;;5069554;28;20040;-74
2023/10/20 08:10:30;;;;;;;5.38;3.67;;;7.10;99.90;;;;;;5055874;28;20571;-74
2023/10/20 08:12:56;;;;;;;4.93;3.55;;;7.10;99.90;;;;;;5071912;28;20118;-73
2023/10/20 08:15:23;;;;;;;6.13;3.33;;;7.10;99.90;;;;;;5072156;28;20044;-75
2023/10/20 08:17:50;;;;;;;5.82;3.25;;;7.00;99.90;;;;;;5069401;28;20056;-75
2023/10/20 08:20:16;;;;;;;5.18;3.67;;;7.00;99.90;;;;;;5039005;28;20041;-73
2023/10/20 08:22:43;;;;;;;4.65;3.08;;;7.00;99.90;;;;;;5070917;28;20058;-73
2023/10/20 08:25:09;;;;;;;5.20;3.10;;;7.10;99.90;;;;;;5052626;28;20085;-75
2023/10/20 08:27:36;;;;;;;4.85;2.97;;;7.10;99.90;;;;;;5069621;28;20044;-73
2023/10/20 08:30:02;;;;;;;4.88;2.92;;;7.10;99.90;;;;;;5071714;28;20087;-73
2023/10/20 08:32:28;;;;;;;4.95;3.10;;;7.00;99.90;;;;;;5071701;28;20044;-73
2023/10/20 08:34:54;;;;;;;4.70;2.65;;;7.00;99.90;;;;;;5071239;28;20106;-72
2023/10/20 08:37:20;;;;;;;3.50;2.33;;;7.00;99.90;;;;;;5053993;28;20482;-72
2023/10/20 08:39:46;;;;;;;4.85;2.22;;;7.00;99.90;;;;;;5069986;28;20049;-72
2023/10/20 08:42:19;;;;;;;3.90;2.28;;;7.00;99.90;;;;;;5072723;28;20447;-72
2023/10/20 08:44:45;;;;;;;3.92;2.60;;;6.90;99.90;;;;;;5062252;28;20132;-73
2023/10/20 08:47:16;;;;;;;4.03;2.55;;;7.00;99.90;;;;;;5069508;28;20064;-72
2023/10/20 08:49:43;;;;;;;6.18;2.88;;;6.90;99.90;;;;;;5066267;28;20045;-72
2023/10/20 08:52:11;;;;;;;5.72;2.85;;;6.90;99.90;;;;;;5070302;28;20090;-74
2023/10/20 08:54:37;;;;;;;4.55;2.30;;;6.90;99.90;;;;;;5068477;28;20044;-74
2023/10/20 08:57:04;;;;;;;4.68;2.35;;;6.90;99.90;;;;;;5068388;28;20044;-71
2023/10/20 08:59:31;;;;;;;4.30;2.40;;;6.90;99.90;;;;;;5068815;28;20124;-72
2023/10/20 09:01:57;;;;;;;8.48;3.20;;;6.90;99.90;;;;;;5064039;28;20111;-71
2023/10/20 09:04:26;;;;;;;6.70;2.70;;;6.90;99.90;;;;;;5053484;28;20052;-72
2023/10/20 09:06:53;;;;;;;3.88;2.15;;;6.90;99.90;;;;;;5070980;28;20040;-71
2023/10/20 09:09:20;;;;;;;4.30;2.63;;;6.90;99.90;;;;;;5087090;28;20495;-72
2023/10/20 09:11:46;;;;;;;4.63;2.78;;;6.80;99.90;;;;;;5070997;28;20123;-71
2023/10/20 09:14:14;;;;;;;2.83;1.80;;;6.90;99.90;;;;;;5071990;28;20044;-72
2023/10/20 09:16:40;;;;;;;3.65;2.20;;;6.80;99.90;;;;;;5070315;28;20444;-72
2023/10/20 09:19:09;;;;;;;6.50;2.15;;;6.90;99.90;;;;;;5076706;28;20052;-72
2023/10/20 09:21:39;;;;;;;3.72;2.03;;;6.90;99.90;;;;;;5060600;28;20095;-72
2023/10/20 09:24:07;;;;;;;3.33;2.25;;;6.80;99.90;;;;;;5070240;28;20076;-73
2023/10/20 09:26:38;;;;;;;4.18;2.20;;;6.80;99.90;;;;;;5071906;28;20044;-72
2023/10/20 09:29:06;;;;;;;5.43;2.33;;;6.70;99.90;;;;;;5068882;28;20494;-72
2023/10/20 09:31:32;;;;;;;5.78;2.22;;;6.70;99.90;;;;;;5070213;28;20075;-73
2023/10/20 09:33:58;;;;;;;3.85;2.00;;;6.70;99.90;;;;;;5071054;28;20524;-72
2023/10/20 09:36:25;;;;;;;5.07;2.50;;;6.70;99.90;;;;;;5070907;28;20119;-72
2023/10/20 09:38:55;;;;;;;4.97;2.63;;;6.60;99.90;;;;;;5069387;28;20462;-72
2023/10/20 09:41:27;;;;;;;2.47;1.70;;;6.60;99.90;;;;;;5069702;28;20358;-71
2023/10/20 09:44:08;;;;;;;3.13;2.00;;;6.60;99.90;;;;;;5067372;28;20048;-73
2023/10/20 09:46:55;;;;;;;3.28;1.75;;;6.60;99.90;;;;;;5071664;28;20048;-72
2023/10/20 09:49:24;;;;;;;3.13;1.80;;;6.70;99.90;;;;;;5083128;28;20102;-73
2023/10/20 09:51:50;;;;;;;3.33;1.65;;;6.60;99.90;;;;;;5069698;28;20089;-72
2023/10/20 09:54:27;;;;;;;3.58;1.90;;;6.60;99.90;;;;;;5068520;28;20048;-74
2023/10/20 09:56:54;;;;;;;2.60;1.67;;;6.60;99.90;;;;;;5075208;28;20433;-72
2023/10/20 09:59:21;;;;;;;3.65;1.95;;;6.60;99.90;;;;;;5070328;28;20044;-72
2023/10/20 10:01:48;;;;;;;3.08;2.03;;;6.70;99.90;;;;;;5065136;28;20029;-72
2023/10/20 10:04:13;;;;;;;2.85;1.50;;;6.60;99.90;;;;;;5067746;28;20051;-72
2023/10/20 10:06:43;;;;;;;3.42;2.00;;;6.60;99.90;;;;;;5068375;28;20135;-71
2023/10/20 10:09:10;;;;;;;3.35;2.13;;;6.60;99.90;;;;;;5067531;28;20049;-71
2023/10/20 10:11:42;;;;;;;2.72;1.55;;;6.60;99.90;;;;;;5068681;28;20087;-71
2023/10/20 10:14:17;;;;;;;3.72;1.85;;;6.60;99.90;;;;;;5069499;28;20045;-70
2023/10/20 10:16:56;;;;;;;3.15;1.83;;;6.60;99.90;;;;;;5066335;28;20123;-71
2023/10/20 10:19:26;;;;;;;2.60;1.73;;;6.60;99.90;;;;;;5063669;28;20040;-71
2023/10/20 10:21:53;;;;;;;3.60;1.77;;;6.60;99.90;;;;;;5068568;28;20047;-70
2023/10/20 10:24:21;;;;;;;2.85;1.85;;;6.60;99.90;;;;;;5086624;28;20063;-73
2023/10/20 10:26:51;;;;;;;2.45;1.63;;;6.60;99.90;;;;;;5069963;28;20094;-72
2023/10/20 10:29:45;;;;;;;2.50;1.50;;;6.60;99.90;;;;;;5069978;28;20037;-72
2023/10/20 10:32:13;;;;;;;2.90;1.77;;;6.50;99.90;;;;;;5068900;28;20052;-71
2023/10/20 10:34:46;;;;;;;3.03;1.83;;;6.50;99.90;;;;;;5070854;28;20114;-71
2023/10/20 10:37:12;;;;;;;4.18;1.92;;;6.50;99.90;;;;;;5070843;28;20045;-71
2023/10/20 10:39:38;;;;;;;3.67;1.70;;;6.50;99.90;;;;;;5071787;28;20070;-71
2023/10/20 10:42:05;;;;;;;3.00;1.50;;;6.50;99.90;;;;;;5067759;28;20479;-70
2023/10/20 10:44:36;;;;;;;1.73;1.50;;;6.40;99.90;;;;;;5071195;28;20393;-70
2023/10/20 10:47:16;;;;;;;3.42;1.73;;;6.40;99.90;;;;;;5069803;28;20059;-71
2023/10/20 10:49:47;;;;;;;4.20;1.58;;;6.40;99.90;;;;;;5070609;28;20055;-72
2023/10/20 10:52:13;;;;;;;3.28;1.40;;;6.40;99.90;;;;;;5069393;28;20101;-73
2023/10/20 10:54:39;;;;;;;2.83;1.70;;;6.40;99.90;;;;;;5069797;28;20044;-74
2023/10/20 10:57:05;;;;;;;4.10;1.63;;;6.40;99.90;;;;;;5067204;28;20040;-74
2023/10/20 10:59:32;;;;;;;2.97;1.35;;;6.40;99.90;;;;;;5050493;28;20094;-74
2023/10/20 11:02:00;;;;;;;2.78;1.52;;;6.40;99.90;;;;;;5064714;28;20055;-74
2023/10/20 11:04:27;;;;;;;3.03;1.75;;;6.40;99.90;;;;;;5070212;28;20053;-73
2023/10/20 11:06:53;;;;;;;5.00;1.65;;;6.40;99.90;;;;;;5071335;28;20040;-73
2023/10/20 11:09:27;;;;;;;5.53;1.80;;;6.40;99.90;;;;;;5070960;28;20075;-73
2023/10/20 11:11:53;;;;;;;3.67;1.85;;;6.30;99.90;;;;;;5064594;28;20047;-76
2023/10/20 11:14:19;;;;;;;5.13;2.08;;;6.30;99.90;;;;;;5077196;28;20044;-76
2023/10/20 11:16:45;;;;;;;4.13;1.60;;;6.30;99.90;;;;;;5075888;28;20118;-75
2023/10/20 11:19:13;;;;;;;4.60;1.88;;;6.30;99.90;;;;;;5076512;28;20042;-75
2023/10/20 11:21:49;;;;;;;2.65;1.48;;;6.30;99.90;;;;;;5078237;28;20032;-76
2023/10/20 11:24:28;;;;;;;2.85;1.40;;;6.30;99.90;;;;;;5078306;28;20048;-76
2023/10/20 11:27:12;;;;;;;2.75;1.58;;;6.20;99.90;;;;;;5081171;28;20040;-78
2023/10/20 11:29:39;;;;;;;2.10;1.57;;;6.20;99.90;;;;;;5065657;28;20048;-81
2023/10/20 11:32:05;;;;;;;4.32;2.00;;;6.20;99.90;;;;;;5081937;28;20048;-80
2023/10/20 11:34:35;;;;;;;1.35;1.15;;;6.20;99.90;;;;;;5084239;28;20128;-80
2023/10/20 11:37:02;;;;;;;2.08;1.52;;;6.20;99.90;;;;;;5079647;28;20418;-78
2023/10/20 11:39:29;;;;;;;4.07;1.30;;;6.10;99.90;;;;;;5083401;28;20048;-80
2023/10/20 11:41:55;;;;;;;3.45;1.20;;;6.10;99.90;;;;;;5081634;28;20250;-82
2023/10/20 11:44:24;;;;;;;1.48;1.33;;;6.20;99.90;;;;;;5082555;28;20028;-81
2023/10/20 11:46:54;;;;;;;2.08;1.23;;;6.10;99.90;;;;;;5082870;28;20115;-78
2023/10/20 11:49:26;;;;;;;2.40;1.60;;;6.20;99.90;;;;;;5081109;28;20063;-82
2023/10/20 11:51:52;;;;;;;2.67;1.60;;;6.10;99.90;;;;;;5081871;28;20048;-81
2023/10/20 11:54:18;;;;;;;4.20;1.50;;;6.10;99.90;;;;;;5067704;28;20429;-79
2023/10/20 11:56:44;;;;;;;3.80;1.40;;;6.20;99.90;;;;;;5080675;28;20052;-80
2023/10/20 11:59:11;;;;;;;6.03;1.50;;;6.20;99.90;;;;;;5079486;28;20198;-81
2023/10/20 12:01:38;;;;;;;2.03;1.45;;;6.20;99.90;;;;;;5081394;28;20051;-80
2023/10/20 12:04:08;;;;;;;2.67;1.70;;;6.10;99.90;;;;;;5079984;28;20048;-77
2023/10/20 12:06:36;;;;;;;2.53;1.50;;;6.10;99.90;;;;;;5081060;28;20040;-79
2023/10/20 12:09:08;;;;;;;2.80;1.52;;;6.20;99.90;;;;;;5078468;28;20055;-75
2023/10/20 12:11:36;;;;;;;2.80;1.70;;;6.20;99.90;;;;;;5079695;28;20086;-80
2023/10/20 12:14:03;;;;;;;3.55;1.42;;;6.20;99.90;;;;;;5081404;28;20045;-81
2023/10/20 12:16:29;;;;;;;3.20;1.55;;;6.20;99.90;;;;;;5080771;28;20052;-80
2023/10/20 12:18:55;;;;;;;4.35;1.73;;;6.20;99.90;;;;;;5080503;28;20053;-81
2023/10/20 12:21:20;;;;;;;1.80;1.50;;;6.20;99.90;;;;;;5077360;28;20091;-79
2023/10/20 12:23:46;;;;;;;2.72;1.65;;;6.30;99.90;;;;;;5077468;28;20044;-78
2023/10/20 12:26:12;;;;;;;2.65;1.60;;;6.30;99.90;;;;;;5059270;28;20123;-79
2023/10/20 12:28:38;;;;;;;3.00;1.67;;;6.20;99.90;;;;;;5076153;28;20154;-80
2023/10/20 12:31:03;;;;;;;2.08;1.33;;;6.20;99.90;;;;;;5076769;28;20091;-83
2023/10/20 12:33:29;;;;;;;1.60;1.35;;;6.20;99.90;;;;;;5074968;28;20049;-85
2023/10/20 12:35:55;;;;;;;15.40;1.88;;;6.20;99.90;;;;;;5075624;28;20052;-83
2023/10/20 12:38:22;;;;;;;3.50;1.70;;;6.20;99.90;;;;;;5075272;28;20048;-81
2023/10/20 12:40:51;;;;;;;2.55;1.50;;;6.20;99.90;;;;;;5074327;28;20054;-81
2023/10/20 12:43:17;;;;;;;1.50;1.40;;;6.20;99.90;;;;;;5072549;28;20055;-83
2023/10/20 12:45:43;;;;;;;2.17;1.38;;;6.20;99.90;;;;;;5045552;28;20036;-82
2023/10/20 12:48:08;;;;;;;3.90;1.42;;;6.20;99.90;;;;;;5072699;28;20056;-74
2023/10/20 12:50:36;;;;;;;2.03;1.58;;;6.20;99.90;;;;;;5074388;28;20040;-80
2023/10/20 12:53:02;;;;;;;4.22;1.50;;;6.30;99.90;;;;;;5071810;28;20048;-79
2023/10/20 12:55:30;;;;;;;2.17;1.40;;;6.20;99.90;;;;;;5073144;28;20040;-80
2023/10/20 12:57:56;;;;;;;4.07;2.00;;;6.20;99.90;;;;;;5073488;28;20429;-81
2023/10/20 13:00:25;;;;;;;6.20;2.20;;;6.20;99.90;;;;;;5071658;28;20131;-78
2023/10/20 13:02:52;;;;;;;7.15;2.28;;;6.20;99.90;;;;;;5070823;28;20044;-81
2023/10/20 13:05:19;;;;;;;3.25;1.88;;;6.20;99.90;;;;;;5071905;28;20109;-79
2023/10/20 13:07:44;;;;;;;3.22;1.98;;;6.20;99.90;;;;;;5065529;28;20044;-78
2023/10/20 13:10:11;;;;;;;3.60;2.17;;;6.20;99.90;;;;;;5072775;28;20057;-72
2023/10/20 13:12:37;;;;;;;7.30;2.80;;;6.20;99.90;;;;;;5072175;28;20085;-77
2023/10/20 13:15:03;;;;;;;5.07;3.00;;;6.20;99.90;;;;;;5071433;28;20402;-77
2023/10/20 13:17:30;;;;;;;1.75;1.27;;;6.20;99.90;;;;;;5061075;28;20072;-79
2023/10/20 13:19:56;;;;;;;7.28;2.92;;;6.20;99.90;;;;;;5035678;28;20047;-78
2023/10/20 13:22:24;;;;;;;1.80;1.30;;;6.20;99.90;;;;;;5071866;28;20099;-76